sensor_id;sensor_type;location;lat;lon;timestamp;P1;durP1;ratioP1;P2;durP2;ratioP2
65463;SDS011;52063;45.110;9.870;2022-11-20T00:00:43;12.43;;;9.23;;
65463;SDS011;52063;45.110;9.870;2022-11-20T00:03:09;13.23;;;9.70;;
65463;SDS011;52063;45.110;9.870;2022-11-20T00:05:34;13.07;;;9.63;;
65463;SDS011;52063;45.110;9.870;2022-11-20T00:08:00;13.20;;;9.30;;
65463;SDS011;52063;45.110;9.870;2022-11-20T00:10:25;13.70;;;9.17;;
65463;SDS011;52063;45.110;9.870;2022-11-20T00:12:51;14.00;;;9.80;;
65463;SDS011;52063;45.110;9.870;2022-11-20T00:15:17;13.00;;;9.30;;
65463;SDS011;52063;45.110;9.870;2022-11-20T00:17:42;13.43;;;9.32;;
65463;SDS011;52063;45.110;9.870;2022-11-20T00:20:08;13.47;;;9.60;;
65463;SDS011;52063;45.110;9.870;2022-11-20T00:22:34;14.63;;;9.25;;
65463;SDS011;52063;45.110;9.870;2022-11-20T00:24:59;13.07;;;9.00;;
65463;SDS011;52063;45.110;9.870;2022-11-20T00:27:25;12.83;;;8.60;;
65463;SDS011;52063;45.110;9.870;2022-11-20T00:29:50;13.88;;;9.00;;
65463;SDS011;52063;45.110;9.870;2022-11-20T00:32:15;11.17;;;8.67;;
65463;SDS011;52063;45.110;9.870;2022-11-20T00:34:41;13.60;;;9.70;;
65463;SDS011;52063;45.110;9.870;2022-11-20T00:37:06;13.85;;;9.38;;
65463;SDS011;52063;45.110;9.870;2022-11-20T00:39:32;12.57;;;8.80;;
65463;SDS011;52063;45.110;9.870;2022-11-20T00:41:57;11.13;;;8.43;;
65463;SDS011;52063;45.110;9.870;2022-11-20T00:44:23;11.90;;;8.70;;
65463;SDS011;52063;45.110;9.870;2022-11-20T00:46:48;12.25;;;9.02;;
65463;SDS011;52063;45.110;9.870;2022-11-20T00:49:14;11.27;;;8.63;;
65463;SDS011;52063;45.110;9.870;2022-11-20T00:51:39;12.27;;;9.20;;
65463;SDS011;52063;45.110;9.870;2022-11-20T00:54:04;12.57;;;8.90;;
65463;SDS011;52063;45.110;9.870;2022-11-20T00:56:30;13.37;;;9.37;;
65463;SDS011;52063;45.110;9.870;2022-11-20T00:58:58;11.37;;;8.37;;
65463;SDS011;52063;45.110;9.870;2022-11-20T01:01:25;12.98;;;8.75;;
65463;SDS011;52063;45.110;9.870;2022-11-20T01:03:51;11.90;;;8.38;;
65463;SDS011;52063;45.110;9.870;2022-11-20T01:06:19;11.88;;;8.30;;
65463;SDS011;52063;45.110;9.870;2022-11-20T01:08:46;13.80;;;8.50;;
65463;SDS011;52063;45.110;9.870;2022-11-20T01:11:16;11.35;;;8.50;;
65463;SDS011;52063;45.110;9.870;2022-11-20T01:13:44;11.35;;;8.82;;
65463;SDS011;52063;45.110;9.870;2022-11-20T01:16:18;12.50;;;9.43;;
65463;SDS011;52063;45.110;9.870;2022-11-20T01:18:46;12.52;;;8.95;;
65463;SDS011;52063;45.110;9.870;2022-11-20T01:21:16;12.33;;;8.70;;
65463;SDS011;52063;45.110;9.870;2022-11-20T01:23:43;12.35;;;8.98;;
65463;SDS011;52063;45.110;9.870;2022-11-20T01:26:10;11.63;;;8.18;;
65463;SDS011;52063;45.110;9.870;2022-11-20T01:28:43;10.77;;;8.05;;
65463;SDS011;52063;45.110;9.870;2022-11-20T01:33:48;11.93;;;9.38;;
65463;SDS011;52063;45.110;9.870;2022-11-20T01:36:16;13.68;;;9.23;;
65463;SDS011;52063;45.110;9.870;2022-11-20T01:38:42;11.85;;;8.60;;
65463;SDS011;52063;45.110;9.870;2022-11-20T01:41:08;13.27;;;9.00;;
65463;SDS011;52063;45.110;9.870;2022-11-20T01:43:35;10.73;;;8.40;;
65463;SDS011;52063;45.110;9.870;2022-11-20T01:51:12;11.25;;;8.10;;
65463;SDS011;52063;45.110;9.870;2022-11-20T01:53:42;11.32;;;8.60;;
65463;SDS011;52063;45.110;9.870;2022-11-20T01:56:09;10.97;;;8.40;;
65463;SDS011;52063;45.110;9.870;2022-11-20T01:58:35;11.55;;;8.73;;
65463;SDS011;52063;45.110;9.870;2022-11-20T02:01:03;12.18;;;8.45;;
65463;SDS011;52063;45.110;9.870;2022-11-20T02:03:29;10.50;;;8.00;;
65463;SDS011;52063;45.110;9.870;2022-11-20T02:08:20;11.40;;;8.10;;
65463;SDS011;52063;45.110;9.870;2022-11-20T02:10:47;12.35;;;8.13;;
65463;SDS011;52063;45.110;9.870;2022-11-20T02:13:12;10.88;;;7.97;;
65463;SDS011;52063;45.110;9.870;2022-11-20T02:15:57;9.87;;;7.37;;
65463;SDS011;52063;45.110;9.870;2022-11-20T02:18:22;11.95;;;8.27;;
65463;SDS011;52063;45.110;9.870;2022-11-20T02:20:49;12.93;;;8.37;;
65463;SDS011;52063;45.110;9.870;2022-11-20T02:26:04;11.70;;;8.00;;
65463;SDS011;52063;45.110;9.870;2022-11-20T02:28:32;11.70;;;7.95;;
65463;SDS011;52063;45.110;9.870;2022-11-20T02:30:58;10.03;;;7.67;;
65463;SDS011;52063;45.110;9.870;2022-11-20T02:33:23;11.40;;;8.15;;
65463;SDS011;52063;45.110;9.870;2022-11-20T02:35:49;11.37;;;8.97;;
65463;SDS011;52063;45.110;9.870;2022-11-20T02:38:15;11.13;;;7.47;;
65463;SDS011;52063;45.110;9.870;2022-11-20T02:40:40;10.60;;;7.47;;
65463;SDS011;52063;45.110;9.870;2022-11-20T02:43:07;10.25;;;7.68;;
65463;SDS011;52063;45.110;9.870;2022-11-20T02:45:32;11.43;;;8.05;;
65463;SDS011;52063;45.110;9.870;2022-11-20T02:47:58;12.07;;;8.30;;
65463;SDS011;52063;45.110;9.870;2022-11-20T02:50:24;9.50;;;7.20;;
65463;SDS011;52063;45.110;9.870;2022-11-20T02:52:49;11.45;;;7.95;;
65463;SDS011;52063;45.110;9.870;2022-11-20T02:55:15;12.67;;;8.10;;
65463;SDS011;52063;45.110;9.870;2022-11-20T02:57:42;12.15;;;8.48;;
65463;SDS011;52063;45.110;9.870;2022-11-20T03:00:07;10.80;;;8.30;;
65463;SDS011;52063;45.110;9.870;2022-11-20T03:02:33;10.82;;;8.43;;
65463;SDS011;52063;45.110;9.870;2022-11-20T03:04:59;11.23;;;7.67;;
65463;SDS011;52063;45.110;9.870;2022-11-20T03:07:24;9.88;;;7.65;;
65463;SDS011;52063;45.110;9.870;2022-11-20T03:09:50;9.80;;;7.40;;
65463;SDS011;52063;45.110;9.870;2022-11-20T03:12:15;11.43;;;7.97;;
65463;SDS011;52063;45.110;9.870;2022-11-20T03:14:41;10.13;;;7.87;;
65463;SDS011;52063;45.110;9.870;2022-11-20T03:17:06;10.13;;;7.60;;
65463;SDS011;52063;45.110;9.870;2022-11-20T03:19:32;10.93;;;7.73;;
65463;SDS011;52063;45.110;9.870;2022-11-20T03:21:57;10.68;;;8.15;;
65463;SDS011;52063;45.110;9.870;2022-11-20T03:24:23;9.97;;;7.57;;
65463;SDS011;52063;45.110;9.870;2022-11-20T03:26:48;10.30;;;7.70;;
65463;SDS011;52063;45.110;9.870;2022-11-20T03:29:13;10.93;;;7.80;;
65463;SDS011;52063;45.110;9.870;2022-11-20T03:31:39;11.68;;;7.88;;
65463;SDS011;52063;45.110;9.870;2022-11-20T03:34:06;11.70;;;8.00;;
65463;SDS011;52063;45.110;9.870;2022-11-20T03:36:32;9.83;;;7.80;;
65463;SDS011;52063;45.110;9.870;2022-11-20T03:38:58;9.48;;;6.82;;
65463;SDS011;52063;45.110;9.870;2022-11-20T03:41:25;10.75;;;7.82;;
65463;SDS011;52063;45.110;9.870;2022-11-20T03:43:53;11.38;;;7.93;;
65463;SDS011;52063;45.110;9.870;2022-11-20T03:46:23;11.50;;;8.13;;
65463;SDS011;52063;45.110;9.870;2022-11-20T03:48:49;12.05;;;7.45;;
65463;SDS011;52063;45.110;9.870;2022-11-20T03:51:16;9.07;;;7.03;;
65463;SDS011;52063;45.110;9.870;2022-11-20T03:53:43;8.85;;;7.20;;
65463;SDS011;52063;45.110;9.870;2022-11-20T03:56:09;9.57;;;7.60;;
65463;SDS011;52063;45.110;9.870;2022-11-20T03:58:36;8.27;;;7.00;;
65463;SDS011;52063;45.110;9.870;2022-11-20T04:01:14;9.40;;;7.40;;
65463;SDS011;52063;45.110;9.870;2022-11-20T04:03:42;10.43;;;7.53;;
65463;SDS011;52063;45.110;9.870;2022-11-20T04:06:15;8.82;;;6.95;;
65463;SDS011;52063;45.110;9.870;2022-11-20T04:08:45;8.68;;;7.20;;
65463;SDS011;52063;45.110;9.870;2022-11-20T04:11:18;9.60;;;7.33;;
65463;SDS011;52063;45.110;9.870;2022-11-20T04:13:54;9.85;;;7.30;;
65463;SDS011;52063;45.110;9.870;2022-11-20T04:16:24;10.43;;;7.25;;
65463;SDS011;52063;45.110;9.870;2022-11-20T04:18:54;8.73;;;6.75;;
65463;SDS011;52063;45.110;9.870;2022-11-20T04:21:23;9.87;;;7.33;;
65463;SDS011;52063;45.110;9.870;2022-11-20T04:23:50;8.77;;;7.05;;
65463;SDS011;52063;45.110;9.870;2022-11-20T04:26:16;9.63;;;7.00;;
65463;SDS011;52063;45.110;9.870;2022-11-20T04:28:41;8.50;;;6.80;;
65463;SDS011;52063;45.110;9.870;2022-11-20T04:31:08;8.45;;;6.85;;
65463;SDS011;52063;45.110;9.870;2022-11-20T04:33:35;9.53;;;7.07;;
65463;SDS011;52063;45.110;9.870;2022-11-20T04:36:05;9.85;;;7.00;;
65463;SDS011;52063;45.110;9.870;2022-11-20T04:38:31;9.07;;;7.10;;
65463;SDS011;52063;45.110;9.870;2022-11-20T04:41:01;9.30;;;6.43;;
65463;SDS011;52063;45.110;9.870;2022-11-20T04:43:28;8.52;;;6.85;;
65463;SDS011;52063;45.110;9.870;2022-11-20T04:45:54;9.63;;;7.32;;
65463;SDS011;52063;45.110;9.870;2022-11-20T04:48:20;9.85;;;7.20;;
65463;SDS011;52063;45.110;9.870;2022-11-20T04:50:46;8.20;;;6.80;;
65463;SDS011;52063;45.110;9.870;2022-11-20T04:53:12;9.30;;;6.78;;
65463;SDS011;52063;45.110;9.870;2022-11-20T04:55:37;8.77;;;7.43;;
65463;SDS011;52063;45.110;9.870;2022-11-20T04:58:03;9.13;;;6.72;;
65463;SDS011;52063;45.110;9.870;2022-11-20T05:00:29;11.53;;;7.80;;
65463;SDS011;52063;45.110;9.870;2022-11-20T05:02:54;7.30;;;6.50;;
65463;SDS011;52063;45.110;9.870;2022-11-20T05:05:19;11.13;;;7.20;;
65463;SDS011;52063;45.110;9.870;2022-11-20T05:07:45;7.97;;;6.67;;
65463;SDS011;52063;45.110;9.870;2022-11-20T05:10:10;8.93;;;6.80;;
65463;SDS011;52063;45.110;9.870;2022-11-20T05:12:36;10.63;;;7.13;;
65463;SDS011;52063;45.110;9.870;2022-11-20T05:15:02;9.47;;;7.00;;
65463;SDS011;52063;45.110;9.870;2022-11-20T05:17:27;8.00;;;6.25;;
65463;SDS011;52063;45.110;9.870;2022-11-20T05:19:53;8.00;;;6.50;;
65463;SDS011;52063;45.110;9.870;2022-11-20T05:22:18;7.78;;;6.13;;
65463;SDS011;52063;45.110;9.870;2022-11-20T05:24:44;11.10;;;6.57;;
65463;SDS011;52063;45.110;9.870;2022-11-20T05:27:09;8.97;;;6.37;;
65463;SDS011;52063;45.110;9.870;2022-11-20T05:29:35;7.00;;;6.30;;
65463;SDS011;52063;45.110;9.870;2022-11-20T05:32:00;9.00;;;6.07;;
65463;SDS011;52063;45.110;9.870;2022-11-20T05:34:26;6.87;;;5.63;;
65463;SDS011;52063;45.110;9.870;2022-11-20T05:36:51;7.97;;;6.00;;
65463;SDS011;52063;45.110;9.870;2022-11-20T05:39:16;8.20;;;6.10;;
65463;SDS011;52063;45.110;9.870;2022-11-20T05:41:42;7.07;;;5.93;;
65463;SDS011;52063;45.110;9.870;2022-11-20T05:44:10;6.47;;;5.63;;
65463;SDS011;52063;45.110;9.870;2022-11-20T05:46:36;7.33;;;6.17;;
65463;SDS011;52063;45.110;9.870;2022-11-20T05:49:01;8.07;;;6.22;;
65463;SDS011;52063;45.110;9.870;2022-11-20T05:51:27;7.10;;;5.57;;
65463;SDS011;52063;45.110;9.870;2022-11-20T05:53:52;6.30;;;5.55;;
65463;SDS011;52063;45.110;9.870;2022-11-20T05:56:19;7.67;;;5.60;;
65463;SDS011;52063;45.110;9.870;2022-11-20T05:58:46;7.90;;;6.40;;
65463;SDS011;52063;45.110;9.870;2022-11-20T06:01:22;6.95;;;5.88;;
65463;SDS011;52063;45.110;9.870;2022-11-20T06:03:49;6.97;;;5.05;;
65463;SDS011;52063;45.110;9.870;2022-11-20T06:06:16;8.77;;;5.70;;
65463;SDS011;52063;45.110;9.870;2022-11-20T06:08:42;6.90;;;5.50;;
65463;SDS011;52063;45.110;9.870;2022-11-20T06:11:09;6.50;;;5.80;;
65463;SDS011;52063;45.110;9.870;2022-11-20T06:13:35;7.57;;;6.03;;
65463;SDS011;52063;45.110;9.870;2022-11-20T06:16:01;6.83;;;5.50;;
65463;SDS011;52063;45.110;9.870;2022-11-20T06:18:27;5.90;;;5.30;;
65463;SDS011;52063;45.110;9.870;2022-11-20T06:21:04;5.90;;;5.10;;
65463;SDS011;52063;45.110;9.870;2022-11-20T06:23:31;5.97;;;4.90;;
65463;SDS011;52063;45.110;9.870;2022-11-20T06:25:58;5.50;;;5.00;;
65463;SDS011;52063;45.110;9.870;2022-11-20T06:28:26;7.00;;;5.40;;
65463;SDS011;52063;45.110;9.870;2022-11-20T06:30:51;5.10;;;4.60;;
65463;SDS011;52063;45.110;9.870;2022-11-20T06:33:17;6.63;;;5.60;;
65463;SDS011;52063;45.110;9.870;2022-11-20T06:35:42;7.77;;;5.27;;
65463;SDS011;52063;45.110;9.870;2022-11-20T06:38:08;6.40;;;5.03;;
65463;SDS011;52063;45.110;9.870;2022-11-20T06:40:33;6.80;;;5.43;;
65463;SDS011;52063;45.110;9.870;2022-11-20T06:42:59;6.00;;;5.23;;
65463;SDS011;52063;45.110;9.870;2022-11-20T06:45:24;5.82;;;5.18;;
65463;SDS011;52063;45.110;9.870;2022-11-20T06:47:50;7.93;;;5.30;;
65463;SDS011;52063;45.110;9.870;2022-11-20T06:50:15;7.43;;;5.47;;
65463;SDS011;52063;45.110;9.870;2022-11-20T06:52:41;6.80;;;5.00;;
65463;SDS011;52063;45.110;9.870;2022-11-20T06:55:06;6.20;;;5.20;;
65463;SDS011;52063;45.110;9.870;2022-11-20T06:57:32;6.35;;;4.93;;
65463;SDS011;52063;45.110;9.870;2022-11-20T06:59:57;6.57;;;4.93;;
65463;SDS011;52063;45.110;9.870;2022-11-20T07:02:23;5.70;;;5.20;;
65463;SDS011;52063;45.110;9.870;2022-11-20T07:04:48;5.63;;;5.00;;
65463;SDS011;52063;45.110;9.870;2022-11-20T07:07:14;5.07;;;4.57;;
65463;SDS011;52063;45.110;9.870;2022-11-20T07:09:39;6.30;;;5.57;;
65463;SDS011;52063;45.110;9.870;2022-11-20T07:12:05;6.60;;;5.30;;
65463;SDS011;52063;45.110;9.870;2022-11-20T07:14:30;6.47;;;5.47;;
65463;SDS011;52063;45.110;9.870;2022-11-20T07:16:56;5.87;;;5.23;;
65463;SDS011;52063;45.110;9.870;2022-11-20T07:19:21;5.60;;;5.10;;
65463;SDS011;52063;45.110;9.870;2022-11-20T07:21:47;5.67;;;5.13;;
65463;SDS011;52063;45.110;9.870;2022-11-20T07:24:12;8.47;;;4.57;;
65463;SDS011;52063;45.110;9.870;2022-11-20T07:26:38;5.13;;;4.63;;
65463;SDS011;52063;45.110;9.870;2022-11-20T07:29:03;5.90;;;5.28;;
65463;SDS011;52063;45.110;9.870;2022-11-20T07:31:29;6.47;;;5.53;;
65463;SDS011;52063;45.110;9.870;2022-11-20T07:33:54;5.90;;;5.23;;
65463;SDS011;52063;45.110;9.870;2022-11-20T07:36:19;6.25;;;5.53;;
65463;SDS011;52063;45.110;9.870;2022-11-20T07:38:45;7.87;;;5.50;;
65463;SDS011;52063;45.110;9.870;2022-11-20T07:41:10;6.47;;;5.30;;
65463;SDS011;52063;45.110;9.870;2022-11-20T07:43:36;6.90;;;5.82;;
65463;SDS011;52063;45.110;9.870;2022-11-20T07:46:02;6.20;;;5.50;;
65463;SDS011;52063;45.110;9.870;2022-11-20T07:48:28;6.32;;;5.45;;
65463;SDS011;52063;45.110;9.870;2022-11-20T07:50:54;9.23;;;5.87;;
65463;SDS011;52063;45.110;9.870;2022-11-20T07:53:23;5.88;;;5.28;;
65463;SDS011;52063;45.110;9.870;2022-11-20T07:55:49;6.18;;;5.57;;
65463;SDS011;52063;45.110;9.870;2022-11-20T07:58:15;6.38;;;5.60;;
65463;SDS011;52063;45.110;9.870;2022-11-20T08:00:40;5.93;;;5.10;;
65463;SDS011;52063;45.110;9.870;2022-11-20T08:03:06;6.17;;;5.47;;
65463;SDS011;52063;45.110;9.870;2022-11-20T08:05:32;6.10;;;5.50;;
65463;SDS011;52063;45.110;9.870;2022-11-20T08:07:57;5.70;;;4.90;;
65463;SDS011;52063;45.110;9.870;2022-11-20T08:10:23;6.68;;;5.95;;
65463;SDS011;52063;45.110;9.870;2022-11-20T08:12:49;6.43;;;5.60;;
65463;SDS011;52063;45.110;9.870;2022-11-20T08:15:35;6.13;;;5.45;;
65463;SDS011;52063;45.110;9.870;2022-11-20T08:18:10;6.22;;;5.63;;
65463;SDS011;52063;45.110;9.870;2022-11-20T08:20:36;6.60;;;5.67;;
65463;SDS011;52063;45.110;9.870;2022-11-20T08:23:03;6.90;;;5.63;;
65463;SDS011;52063;45.110;9.870;2022-11-20T08:25:34;6.32;;;5.72;;
65463;SDS011;52063;45.110;9.870;2022-11-20T08:28:04;6.22;;;5.63;;
65463;SDS011;52063;45.110;9.870;2022-11-20T08:30:31;6.30;;;5.70;;
65463;SDS011;52063;45.110;9.870;2022-11-20T08:33:00;7.93;;;6.00;;
65463;SDS011;52063;45.110;9.870;2022-11-20T08:35:28;8.00;;;5.88;;
65463;SDS011;52063;45.110;9.870;2022-11-20T08:37:53;7.53;;;6.00;;
65463;SDS011;52063;45.110;9.870;2022-11-20T08:40:19;6.72;;;6.03;;
65463;SDS011;52063;45.110;9.870;2022-11-20T08:42:48;6.80;;;5.80;;
65463;SDS011;52063;45.110;9.870;2022-11-20T08:45:14;8.10;;;6.25;;
65463;SDS011;52063;45.110;9.870;2022-11-20T08:47:40;6.70;;;6.00;;
65463;SDS011;52063;45.110;9.870;2022-11-20T08:50:06;6.97;;;6.20;;
65463;SDS011;52063;45.110;9.870;2022-11-20T08:52:32;8.13;;;6.32;;
65463;SDS011;52063;45.110;9.870;2022-11-20T08:54:58;8.00;;;6.57;;
65463;SDS011;52063;45.110;9.870;2022-11-20T08:57:23;6.13;;;5.53;;
65463;SDS011;52063;45.110;9.870;2022-11-20T08:59:49;6.67;;;5.97;;
65463;SDS011;52063;45.110;9.870;2022-11-20T09:02:14;7.20;;;6.40;;
65463;SDS011;52063;45.110;9.870;2022-11-20T09:04:40;6.68;;;5.78;;
65463;SDS011;52063;45.110;9.870;2022-11-20T09:07:06;6.30;;;5.67;;
65463;SDS011;52063;45.110;9.870;2022-11-20T09:09:31;7.30;;;6.00;;
65463;SDS011;52063;45.110;9.870;2022-11-20T09:11:57;7.88;;;6.72;;
65463;SDS011;52063;45.110;9.870;2022-11-20T09:14:23;6.50;;;5.80;;
65463;SDS011;52063;45.110;9.870;2022-11-20T09:16:57;7.70;;;6.57;;
65463;SDS011;52063;45.110;9.870;2022-11-20T09:19:23;7.38;;;6.00;;
65463;SDS011;52063;45.110;9.870;2022-11-20T09:21:49;7.13;;;6.32;;
65463;SDS011;52063;45.110;9.870;2022-11-20T09:24:14;7.47;;;6.50;;
65463;SDS011;52063;45.110;9.870;2022-11-20T09:26:40;7.32;;;6.50;;
65463;SDS011;52063;45.110;9.870;2022-11-20T09:29:05;8.10;;;6.77;;
65463;SDS011;52063;45.110;9.870;2022-11-20T09:31:31;8.13;;;7.03;;
65463;SDS011;52063;45.110;9.870;2022-11-20T09:33:57;7.27;;;6.43;;
65463;SDS011;52063;45.110;9.870;2022-11-20T09:36:22;7.88;;;7.07;;
65463;SDS011;52063;45.110;9.870;2022-11-20T09:38:48;7.70;;;6.90;;
65463;SDS011;52063;45.110;9.870;2022-11-20T09:44:31;9.00;;;6.93;;
65463;SDS011;52063;45.110;9.870;2022-11-20T09:47:04;9.15;;;6.68;;
65463;SDS011;52063;45.110;9.870;2022-11-20T09:49:54;8.18;;;7.00;;
65463;SDS011;52063;45.110;9.870;2022-11-20T09:55:45;9.93;;;7.93;;
65463;SDS011;52063;45.110;9.870;2022-11-20T09:58:35;8.70;;;7.03;;
65463;SDS011;52063;45.110;9.870;2022-11-20T10:01:15;7.85;;;7.05;;
65463;SDS011;52063;45.110;9.870;2022-11-20T10:06:17;7.77;;;6.77;;
65463;SDS011;52063;45.110;9.870;2022-11-20T10:25:15;23.52;;;14.80;;
65463;SDS011;52063;45.110;9.870;2022-11-20T10:27:48;22.48;;;15.75;;
65463;SDS011;52063;45.110;9.870;2022-11-20T10:30:37;28.50;;;17.42;;
65463;SDS011;52063;45.110;9.870;2022-11-20T10:33:13;25.40;;;16.43;;
65463;SDS011;52063;45.110;9.870;2022-11-20T10:38:39;22.80;;;16.15;;
65463;SDS011;52063;45.110;9.870;2022-11-20T10:41:07;22.92;;;15.38;;
65463;SDS011;52063;45.110;9.870;2022-11-20T10:44:00;21.20;;;15.10;;
65463;SDS011;52063;45.110;9.870;2022-11-20T10:46:37;22.17;;;16.00;;
65463;SDS011;52063;45.110;9.870;2022-11-20T10:49:15;22.73;;;16.05;;
65463;SDS011;52063;45.110;9.870;2022-11-20T10:51:52;22.13;;;14.50;;
65463;SDS011;52063;45.110;9.870;2022-11-20T10:57:17;18.30;;;12.50;;
65463;SDS011;52063;45.110;9.870;2022-11-20T11:02:21;19.40;;;12.85;;
65463;SDS011;52063;45.110;9.870;2022-11-20T11:04:57;18.58;;;12.68;;
65463;SDS011;52063;45.110;9.870;2022-11-20T11:07:25;16.33;;;11.90;;
65463;SDS011;52063;45.110;9.870;2022-11-20T11:09:54;17.85;;;12.45;;
65463;SDS011;52063;45.110;9.870;2022-11-20T11:12:21;16.60;;;11.68;;
65463;SDS011;52063;45.110;9.870;2022-11-20T11:14:49;18.40;;;13.50;;
65463;SDS011;52063;45.110;9.870;2022-11-20T11:17:20;18.63;;;13.02;;
65463;SDS011;52063;45.110;9.870;2022-11-20T11:19:58;17.70;;;12.45;;
65463;SDS011;52063;45.110;9.870;2022-11-20T11:22:27;17.58;;;12.68;;
65463;SDS011;52063;45.110;9.870;2022-11-20T11:24:54;18.00;;;13.55;;
65463;SDS011;52063;45.110;9.870;2022-11-20T11:27:20;17.57;;;12.23;;
65463;SDS011;52063;45.110;9.870;2022-11-20T11:29:45;15.90;;;12.17;;
65463;SDS011;52063;45.110;9.870;2022-11-20T11:32:12;21.08;;;12.43;;
65463;SDS011;52063;45.110;9.870;2022-11-20T11:34:43;17.02;;;12.60;;
65463;SDS011;52063;45.110;9.870;2022-11-20T11:37:17;16.70;;;12.37;;
65463;SDS011;52063;45.110;9.870;2022-11-20T11:39:44;17.83;;;12.45;;
65463;SDS011;52063;45.110;9.870;2022-11-20T11:42:12;16.38;;;12.10;;
65463;SDS011;52063;45.110;9.870;2022-11-20T11:44:44;17.73;;;12.20;;
65463;SDS011;52063;45.110;9.870;2022-11-20T11:55:09;19.10;;;12.52;;
65463;SDS011;52063;45.110;9.870;2022-11-20T11:57:47;19.35;;;14.52;;
65463;SDS011;52063;45.110;9.870;2022-11-20T12:00:17;18.77;;;13.80;;
65463;SDS011;52063;45.110;9.870;2022-11-20T12:05:27;18.93;;;13.83;;
65463;SDS011;52063;45.110;9.870;2022-11-20T12:07:58;18.17;;;13.57;;
65463;SDS011;52063;45.110;9.870;2022-11-20T12:15:53;18.00;;;12.68;;
65463;SDS011;52063;45.110;9.870;2022-11-20T12:18:19;16.60;;;13.10;;
65463;SDS011;52063;45.110;9.870;2022-11-20T12:20:48;20.88;;;15.07;;
65463;SDS011;52063;45.110;9.870;2022-11-20T12:26:10;20.23;;;14.93;;
65463;SDS011;52063;45.110;9.870;2022-11-20T12:28:44;21.83;;;14.73;;
65463;SDS011;52063;45.110;9.870;2022-11-20T12:31:33;20.45;;;15.80;;
65463;SDS011;52063;45.110;9.870;2022-11-20T12:34:10;19.88;;;14.63;;
65463;SDS011;52063;45.110;9.870;2022-11-20T12:42:06;22.67;;;15.25;;
65463;SDS011;52063;45.110;9.870;2022-11-20T13:01:56;27.05;;;18.42;;
65463;SDS011;52063;45.110;9.870;2022-11-20T13:07:06;26.23;;;18.13;;
65463;SDS011;52063;45.110;9.870;2022-11-20T13:09:35;21.13;;;16.17;;
65463;SDS011;52063;45.110;9.870;2022-11-20T13:19:53;20.77;;;15.57;;
65463;SDS011;52063;45.110;9.870;2022-11-20T13:22:26;22.48;;;16.63;;
65463;SDS011;52063;45.110;9.870;2022-11-20T13:24:53;21.85;;;15.88;;
65463;SDS011;52063;45.110;9.870;2022-11-20T13:27:20;22.33;;;15.10;;
65463;SDS011;52063;45.110;9.870;2022-11-20T13:38:09;20.67;;;15.65;;
65463;SDS011;52063;45.110;9.870;2022-11-20T13:40:58;22.70;;;16.23;;
65463;SDS011;52063;45.110;9.870;2022-11-20T13:45:58;20.77;;;15.18;;
65463;SDS011;52063;45.110;9.870;2022-11-20T13:48:29;20.17;;;15.10;;
65463;SDS011;52063;45.110;9.870;2022-11-20T13:50:59;20.75;;;14.98;;
65463;SDS011;52063;45.110;9.870;2022-11-20T13:53:33;18.23;;;13.80;;
65463;SDS011;52063;45.110;9.870;2022-11-20T14:01:34;20.58;;;14.85;;
65463;SDS011;52063;45.110;9.870;2022-11-20T14:04:01;20.27;;;15.83;;
65463;SDS011;52063;45.110;9.870;2022-11-20T14:06:43;19.38;;;14.20;;
65463;SDS011;52063;45.110;9.870;2022-11-20T14:09:24;21.77;;;15.60;;
65463;SDS011;52063;45.110;9.870;2022-11-20T14:11:56;18.55;;;13.90;;
65463;SDS011;52063;45.110;9.870;2022-11-20T14:14:23;18.03;;;13.60;;
65463;SDS011;52063;45.110;9.870;2022-11-20T14:16:52;22.15;;;15.30;;
65463;SDS011;52063;45.110;9.870;2022-11-20T14:19:29;18.60;;;14.70;;
65463;SDS011;52063;45.110;9.870;2022-11-20T14:24:44;21.47;;;15.40;;
65463;SDS011;52063;45.110;9.870;2022-11-20T14:27:11;20.10;;;15.20;;
65463;SDS011;52063;45.110;9.870;2022-11-20T14:29:48;23.08;;;16.45;;
65463;SDS011;52063;45.110;9.870;2022-11-20T14:32:18;24.05;;;16.02;;
65463;SDS011;52063;45.110;9.870;2022-11-20T14:34:46;21.70;;;15.00;;
65463;SDS011;52063;45.110;9.870;2022-11-20T14:37:18;18.83;;;14.07;;
65463;SDS011;52063;45.110;9.870;2022-11-20T14:39:50;19.25;;;14.43;;
65463;SDS011;52063;45.110;9.870;2022-11-20T14:42:21;19.27;;;14.75;;
65463;SDS011;52063;45.110;9.870;2022-11-20T14:44:50;20.00;;;16.05;;
65463;SDS011;52063;45.110;9.870;2022-11-20T14:47:21;23.75;;;19.00;;
65463;SDS011;52063;45.110;9.870;2022-11-20T14:49:49;26.17;;;21.27;;
65463;SDS011;52063;45.110;9.870;2022-11-20T14:54:43;25.58;;;20.20;;
65463;SDS011;52063;45.110;9.870;2022-11-20T14:57:26;25.98;;;18.10;;
65463;SDS011;52063;45.110;9.870;2022-11-20T15:00:06;26.23;;;19.20;;
65463;SDS011;52063;45.110;9.870;2022-11-20T15:02:42;26.67;;;20.57;;
65463;SDS011;52063;45.110;9.870;2022-11-20T15:05:09;27.55;;;19.73;;
65463;SDS011;52063;45.110;9.870;2022-11-20T15:07:35;27.27;;;19.55;;
65463;SDS011;52063;45.110;9.870;2022-11-20T15:10:07;25.07;;;18.47;;
65463;SDS011;52063;45.110;9.870;2022-11-20T15:12:35;24.30;;;18.70;;
65463;SDS011;52063;45.110;9.870;2022-11-20T15:15:02;21.35;;;17.25;;
65463;SDS011;52063;45.110;9.870;2022-11-20T15:17:30;24.58;;;17.73;;
65463;SDS011;52063;45.110;9.870;2022-11-20T15:19:56;22.65;;;16.73;;
65463;SDS011;52063;45.110;9.870;2022-11-20T15:22:22;24.30;;;16.63;;
65463;SDS011;52063;45.110;9.870;2022-11-20T15:24:47;25.23;;;18.43;;
65463;SDS011;52063;45.110;9.870;2022-11-20T15:27:13;23.63;;;17.20;;
65463;SDS011;52063;45.110;9.870;2022-11-20T15:29:38;22.77;;;16.63;;
65463;SDS011;52063;45.110;9.870;2022-11-20T15:32:04;19.50;;;15.30;;
65463;SDS011;52063;45.110;9.870;2022-11-20T15:34:30;24.83;;;17.13;;
65463;SDS011;52063;45.110;9.870;2022-11-20T15:36:55;19.40;;;15.00;;
65463;SDS011;52063;45.110;9.870;2022-11-20T15:39:21;17.63;;;14.67;;
65463;SDS011;52063;45.110;9.870;2022-11-20T15:41:46;19.95;;;15.48;;
65463;SDS011;52063;45.110;9.870;2022-11-20T15:44:12;20.60;;;14.97;;
65463;SDS011;52063;45.110;9.870;2022-11-20T15:46:39;17.88;;;14.02;;
65463;SDS011;52063;45.110;9.870;2022-11-20T15:49:11;15.47;;;12.43;;
65463;SDS011;52063;45.110;9.870;2022-11-20T15:51:38;18.42;;;14.13;;
65463;SDS011;52063;45.110;9.870;2022-11-20T15:54:17;20.52;;;14.48;;
65463;SDS011;52063;45.110;9.870;2022-11-20T15:56:45;19.48;;;13.32;;
65463;SDS011;52063;45.110;9.870;2022-11-20T15:59:11;17.45;;;12.57;;
65463;SDS011;52063;45.110;9.870;2022-11-20T16:01:39;19.50;;;13.70;;
65463;SDS011;52063;45.110;9.870;2022-11-20T16:04:05;18.05;;;13.73;;
65463;SDS011;52063;45.110;9.870;2022-11-20T16:06:34;17.52;;;13.90;;
65463;SDS011;52063;45.110;9.870;2022-11-20T16:08:59;17.37;;;13.57;;
65463;SDS011;52063;45.110;9.870;2022-11-20T16:11:25;17.90;;;12.60;;
65463;SDS011;52063;45.110;9.870;2022-11-20T16:13:50;20.77;;;14.07;;
65463;SDS011;52063;45.110;9.870;2022-11-20T16:16:35;15.70;;;12.55;;
65463;SDS011;52063;45.110;9.870;2022-11-20T16:19:01;18.42;;;13.85;;
65463;SDS011;52063;45.110;9.870;2022-11-20T16:21:27;16.37;;;13.17;;
65463;SDS011;52063;45.110;9.870;2022-11-20T16:23:59;17.23;;;11.73;;
65463;SDS011;52063;45.110;9.870;2022-11-20T16:26:25;15.70;;;11.52;;
65463;SDS011;52063;45.110;9.870;2022-11-20T16:28:51;15.80;;;11.80;;
65463;SDS011;52063;45.110;9.870;2022-11-20T16:31:17;14.85;;;10.98;;
65463;SDS011;52063;45.110;9.870;2022-11-20T16:33:50;15.33;;;10.90;;
65463;SDS011;52063;45.110;9.870;2022-11-20T16:36:20;15.70;;;12.30;;
65463;SDS011;52063;45.110;9.870;2022-11-20T16:38:51;15.45;;;11.98;;
65463;SDS011;52063;45.110;9.870;2022-11-20T16:41:17;15.13;;;11.10;;